createdAt,value
2018-05-23T00:00:21.897Z,12.40
2018-05-23T00:02:48.304Z,12.50
2018-05-23T00:05:14.701Z,12.40
2018-05-23T00:07:41.841Z,12.35
2018-05-23T00:10:08.984Z,12.40
2018-05-23T00:12:35.382Z,12.70
2018-05-23T00:15:01.751Z,12.40
2018-05-23T00:17:28.907Z,12.30
2018-05-23T00:19:55.294Z,12.93
2018-05-23T00:22:21.676Z,12.65
2018-05-23T00:24:48.823Z,12.60
2018-05-23T00:27:15.228Z,12.68
2018-05-23T00:29:41.640Z,14.03
2018-05-23T00:32:08.034Z,13.20
2018-05-23T00:34:34.427Z,14.20
2018-05-23T00:37:00.801Z,14.73
2018-05-23T00:39:27.176Z,15.38
2018-05-23T00:41:53.610Z,15.02
2018-05-23T00:44:20.008Z,15.88
2018-05-23T00:46:47.153Z,14.45
2018-05-23T00:49:13.553Z,13.27
2018-05-23T00:51:39.957Z,12.82
2018-05-23T00:54:06.372Z,12.60
2018-05-23T00:56:33.504Z,12.52
2018-05-23T00:59:00.645Z,11.70
2018-05-23T01:01:27.028Z,11.90
2018-05-23T01:03:53.448Z,12.50
2018-05-23T01:06:20.616Z,12.90
2018-05-23T01:08:46.988Z,11.30
2018-05-23T01:11:13.380Z,12.60
2018-05-23T01:13:39.783Z,12.37
2018-05-23T01:16:06.236Z,12.20
2018-05-23T01:18:32.688Z,12.10
2018-05-23T01:20:59.124Z,11.98
2018-05-23T01:23:25.512Z,12.15
2018-05-23T01:25:51.918Z,11.95
2018-05-23T01:28:18.317Z,11.70
2018-05-23T01:30:44.700Z,11.33
2018-05-23T01:33:11.109Z,12.30
2018-05-23T01:35:37.499Z,12.55
2018-05-23T01:38:04.689Z,12.65
2018-05-23T01:40:31.120Z,12.05
2018-05-23T01:42:57.514Z,13.35
2018-05-23T01:45:24.661Z,12.40
2018-05-23T01:47:51.049Z,12.25
2018-05-23T01:50:17.424Z,12.88
2018-05-23T01:52:43.829Z,12.23
2018-05-23T01:55:10.211Z,13.07
2018-05-23T01:57:37.346Z,11.97
2018-05-23T02:00:03.768Z,12.75
2018-05-23T02:02:30.140Z,12.00
2018-05-23T02:04:56.549Z,12.50
2018-05-23T02:07:22.961Z,12.60
2018-05-23T02:09:49.348Z,12.30
2018-05-23T02:12:15.745Z,12.02
2018-05-23T02:14:42.904Z,12.10
2018-05-23T02:17:09.284Z,13.20
2018-05-23T02:19:35.672Z,12.10
2018-05-23T02:22:02.135Z,12.70
2018-05-23T02:24:28.536Z,13.50
2018-05-23T02:26:54.929Z,12.00
2018-05-23T02:29:21.321Z,13.52
2018-05-23T02:31:48.440Z,13.27
2018-05-23T02:34:14.891Z,12.70
2018-05-23T02:36:41.346Z,12.70
2018-05-23T02:39:08.477Z,11.70
2018-05-23T02:41:36.305Z,11.70
2018-05-23T02:44:05.353Z,11.88
2018-05-23T02:46:31.803Z,13.05
2018-05-23T02:48:58.211Z,13.68
2018-05-23T02:51:24.604Z,13.50
2018-05-23T02:53:51.003Z,13.05
2018-05-23T02:56:18.134Z,12.75
2018-05-23T02:58:44.538Z,13.40
2018-05-23T03:01:10.973Z,12.90
2018-05-23T03:03:37.360Z,13.30
2018-05-23T03:06:03.768Z,12.57
2018-05-23T03:08:30.170Z,12.82
2018-05-23T03:10:56.577Z,12.67
2018-05-23T03:13:22.982Z,13.18
2018-05-23T03:15:50.144Z,12.77
2018-05-23T03:18:17.393Z,13.30
2018-05-23T03:20:44.533Z,13.38
2018-05-23T03:23:11.673Z,13.80
2018-05-23T03:25:38.080Z,13.77
2018-05-23T03:28:04.544Z,13.10
2018-05-23T03:30:30.929Z,13.80
2018-05-23T03:32:57.327Z,13.90
2018-05-23T03:35:24.484Z,13.25
2018-05-23T03:37:51.607Z,14.10
2018-05-23T03:40:18.004Z,15.00
2018-05-23T03:42:44.396Z,14.80
2018-05-23T03:45:11.512Z,15.02
2018-05-23T03:47:37.938Z,15.75
2018-05-23T03:50:04.351Z,15.02
2018-05-23T03:52:30.743Z,14.40
2018-05-23T03:54:57.134Z,14.15
2018-05-23T03:57:23.513Z,14.40
2018-05-23T04:00:02.841Z,14.20
2018-05-23T04:02:41.700Z,14.30
2018-05-23T04:08:07.120Z,14.63
2018-05-23T04:10:34.262Z,14.60
2018-05-23T04:13:01.411Z,13.40
2018-05-23T04:15:28.549Z,13.38
2018-05-23T04:17:54.946Z,14.05
2018-05-23T04:20:21.353Z,13.27
2018-05-23T04:22:47.753Z,13.77
2018-05-23T04:25:14.151Z,13.25
2018-05-23T04:27:40.548Z,13.55
2018-05-23T04:30:07.664Z,12.93
2018-05-23T04:32:34.066Z,13.02
2018-05-23T04:35:00.451Z,12.43
2018-05-23T04:37:27.588Z,12.52
2018-05-23T04:39:54.004Z,12.35
2018-05-23T04:42:20.373Z,11.80
2018-05-23T04:44:47.501Z,11.00
2018-05-23T04:47:13.896Z,11.70
2018-05-23T04:49:40.264Z,11.45
2018-05-23T04:52:06.659Z,11.48
2018-05-23T04:54:33.049Z,11.05
2018-05-23T04:56:59.422Z,11.27
2018-05-23T04:59:25.820Z,11.40
2018-05-23T05:01:52.211Z,10.75
2018-05-23T05:04:18.571Z,11.35
2018-05-23T05:06:44.969Z,10.50
2018-05-23T05:09:11.372Z,11.30
2018-05-23T05:11:38.484Z,11.45
2018-05-23T05:14:04.893Z,11.63
2018-05-23T05:16:31.292Z,11.40
2018-05-23T05:18:58.400Z,11.97
2018-05-23T05:21:24.788Z,12.60
2018-05-23T05:23:51.221Z,12.10
2018-05-23T05:26:17.669Z,11.50
2018-05-23T05:28:44.033Z,11.27
2018-05-23T05:31:10.439Z,11.20
2018-05-23T05:33:36.844Z,11.10
2018-05-23T05:36:03.995Z,10.60
2018-05-23T05:38:31.142Z,10.98
2018-05-23T05:40:58.259Z,11.30
2018-05-23T05:43:24.656Z,11.20
2018-05-23T05:45:51.032Z,11.82
2018-05-23T05:48:17.432Z,10.90
2018-05-23T05:50:43.795Z,10.15
2018-05-23T05:53:10.189Z,10.70
2018-05-23T05:55:36.596Z,10.70
2018-05-23T05:58:03.760Z,11.10
2018-05-23T06:00:30.171Z,10.15
2018-05-23T06:02:56.558Z,10.90
2018-05-23T06:05:22.943Z,10.73
2018-05-23T06:07:50.080Z,10.90
2018-05-23T06:10:16.473Z,11.27
2018-05-23T06:12:42.856Z,10.70
2018-05-23T06:15:09.996Z,11.18
2018-05-23T06:17:36.379Z,10.48
2018-05-23T06:20:02.803Z,10.73
2018-05-23T06:22:29.206Z,10.93
2018-05-23T06:24:55.636Z,10.23
2018-05-23T06:27:22.060Z,11.10
2018-05-23T06:29:48.478Z,10.00
2018-05-23T06:32:14.880Z,11.12
2018-05-23T06:34:41.256Z,10.35
2018-05-23T06:37:07.666Z,11.13
2018-05-23T06:39:34.075Z,11.85
2018-05-23T06:42:00.453Z,11.55
2018-05-23T06:44:26.850Z,12.80
2018-05-23T06:46:53.220Z,11.85
2018-05-23T06:49:19.620Z,11.23
2018-05-23T06:51:46.012Z,11.48
2018-05-23T06:54:12.382Z,11.07
2018-05-23T06:56:38.784Z,11.23
2018-05-23T06:59:05.177Z,11.25
2018-05-23T07:01:31.545Z,10.90
2018-05-23T07:03:57.930Z,10.50
2018-05-23T07:06:24.351Z,11.10
2018-05-23T07:08:51.459Z,11.07
2018-05-23T07:11:17.864Z,11.40
2018-05-23T07:13:44.260Z,11.95
2018-05-23T07:16:10.650Z,11.20
2018-05-23T07:18:37.051Z,11.20
2018-05-23T07:21:03.448Z,12.50
2018-05-23T07:23:30.558Z,12.20
2018-05-23T07:25:56.980Z,11.30
2018-05-23T07:28:23.371Z,12.32
2018-05-23T07:30:50.528Z,11.85
2018-05-23T07:33:17.755Z,12.50
2018-05-23T07:35:44.188Z,12.70
2018-05-23T07:38:11.351Z,12.32
2018-05-23T07:40:37.728Z,12.60
2018-05-23T07:43:04.152Z,12.13
2018-05-23T07:45:30.640Z,12.17
2018-05-23T07:47:57.023Z,12.40
2018-05-23T07:50:23.399Z,12.88
2018-05-23T07:52:49.802Z,12.05
2018-05-23T07:55:16.208Z,13.30
2018-05-23T07:57:42.605Z,13.38
2018-05-23T08:00:08.989Z,13.55
2018-05-23T08:02:35.376Z,13.27
2018-05-23T08:05:01.780Z,13.02
2018-05-23T08:07:28.155Z,12.47
2018-05-23T08:09:54.581Z,12.35
2018-05-23T08:12:20.944Z,13.57
2018-05-23T08:14:48.116Z,13.02
2018-05-23T08:17:14.483Z,12.93
2018-05-23T08:19:40.870Z,12.70
2018-05-23T08:22:07.240Z,12.80
2018-05-23T08:24:33.647Z,12.37
2018-05-23T08:27:00.053Z,12.65
2018-05-23T08:29:27.188Z,12.85
2018-05-23T08:31:53.624Z,13.10
2018-05-23T08:37:37.097Z,13.23
2018-05-23T08:40:04.305Z,14.10
2018-05-23T08:42:30.685Z,14.68
2018-05-23T08:44:57.826Z,14.00
2018-05-23T08:47:24.207Z,14.00
2018-05-23T08:49:50.602Z,12.25
2018-05-23T08:52:17.724Z,13.38
2018-05-23T08:54:44.116Z,12.30
2018-05-23T08:57:10.488Z,12.00
2018-05-23T08:59:36.871Z,12.45
2018-05-23T09:02:03.267Z,13.55
2018-05-23T09:04:29.662Z,14.40
2018-05-23T09:06:56.048Z,11.98
2018-05-23T09:09:22.436Z,11.73
2018-05-23T09:11:48.833Z,11.90
2018-05-23T09:14:15.220Z,10.20
2018-05-23T09:16:41.621Z,9.95
2018-05-23T09:19:07.997Z,11.67
2018-05-23T09:21:34.391Z,10.25
2018-05-23T09:24:00.779Z,11.73
2018-05-23T09:26:27.149Z,10.88
2018-05-23T09:28:53.588Z,11.50
2018-05-23T09:31:20.122Z,12.73
2018-05-23T09:33:46.547Z,12.10
2018-05-23T09:36:12.946Z,11.93
2018-05-23T09:38:39.396Z,13.32
2018-05-23T09:41:06.678Z,13.30
2018-05-23T09:43:33.096Z,12.48
2018-05-23T09:46:00.209Z,12.27
2018-05-23T09:48:26.619Z,11.48
2018-05-23T09:50:52.999Z,12.10
2018-05-23T09:53:20.156Z,13.00
2018-05-23T09:55:47.284Z,12.77
2018-05-23T09:58:13.696Z,12.80
2018-05-23T10:00:40.059Z,14.20
2018-05-23T10:03:06.467Z,13.45
2018-05-23T10:05:32.867Z,13.45
2018-05-23T10:07:59.243Z,13.00
2018-05-23T10:10:25.636Z,12.57
2018-05-23T10:12:52.006Z,12.70
2018-05-23T10:15:18.429Z,11.52
2018-05-23T10:17:44.816Z,10.27
2018-05-23T10:20:11.961Z,13.35
2018-05-23T10:22:39.081Z,12.20
2018-05-23T10:25:05.493Z,12.10
2018-05-23T10:27:31.928Z,10.43
2018-05-23T10:29:58.309Z,13.50
2018-05-23T10:42:11.032Z,11.70
2018-05-23T10:44:37.407Z,10.48
2018-05-23T10:47:03.813Z,9.90
2018-05-23T10:49:30.188Z,8.80
2018-05-23T10:51:56.621Z,11.67
2018-05-23T10:54:23.019Z,9.70
2018-05-23T10:56:49.388Z,10.10
2018-05-23T10:59:15.788Z,11.33
2018-05-23T11:01:42.195Z,11.80
2018-05-23T11:04:08.567Z,11.27
2018-05-23T11:06:34.945Z,10.53
2018-05-23T11:09:02.218Z,9.90
2018-05-23T11:11:28.632Z,10.00
2018-05-23T11:13:55.770Z,9.53
2018-05-23T11:16:22.902Z,9.83
2018-05-23T11:18:49.300Z,9.80
2018-05-23T11:21:15.679Z,9.13
2018-05-23T11:23:42.069Z,9.90
2018-05-23T11:26:08.452Z,9.67
2018-05-23T11:28:34.875Z,10.70
2018-05-23T11:31:01.277Z,10.27
2018-05-23T11:33:27.682Z,10.03
2018-05-23T11:35:54.072Z,9.70
2018-05-23T11:38:20.447Z,11.33
2018-05-23T11:40:47.583Z,10.90
2018-05-23T11:43:13.959Z,9.87
2018-05-23T11:45:40.404Z,10.70
2018-05-23T11:48:06.771Z,11.87
2018-05-23T11:50:33.187Z,11.40
2018-05-23T11:52:59.581Z,12.70
2018-05-23T11:55:25.974Z,10.73
2018-05-23T11:57:52.347Z,11.00
2018-05-23T12:00:18.735Z,10.10
2018-05-23T12:02:45.140Z,8.93
2018-05-23T12:05:11.504Z,8.67
2018-05-23T12:07:37.913Z,9.93
2018-05-23T12:10:04.288Z,9.90
2018-05-23T12:12:31.448Z,10.13
2018-05-23T12:14:58.560Z,9.93
2018-05-23T12:17:25.131Z,11.25
2018-05-23T12:19:52.241Z,9.80
2018-05-23T12:22:18.640Z,9.73
2018-05-23T12:24:45.025Z,9.93
2018-05-23T12:27:11.468Z,9.33
2018-05-23T12:29:37.840Z,10.93
2018-05-23T12:32:04.275Z,9.80
2018-05-23T12:34:30.648Z,8.67
2018-05-23T12:36:57.039Z,8.97
2018-05-23T12:39:23.427Z,6.40
2018-05-23T12:41:49.801Z,8.43
2018-05-23T12:44:16.972Z,8.10
2018-05-23T12:46:43.348Z,8.60
2018-05-23T12:49:09.750Z,8.80
2018-05-23T12:51:36.144Z,8.20
2018-05-23T12:54:03.356Z,8.30
2018-05-23T12:56:29.752Z,9.13
2018-05-23T12:58:56.143Z,10.47
2018-05-23T13:01:22.572Z,8.37
2018-05-23T13:03:48.948Z,8.37
2018-05-23T13:06:15.350Z,9.10
2018-05-23T13:08:41.728Z,9.40
2018-05-23T13:11:08.141Z,8.53
2018-05-23T13:13:35.252Z,6.37
2018-05-23T13:16:01.664Z,6.23
2018-05-23T13:18:28.037Z,7.43
2018-05-23T13:20:54.435Z,6.60
2018-05-23T13:23:20.849Z,7.00
2018-05-23T13:25:47.292Z,6.43
2018-05-23T13:28:14.401Z,7.00
2018-05-23T13:30:41.516Z,6.10
2018-05-23T13:33:07.900Z,5.90
2018-05-23T13:35:35.039Z,5.67
2018-05-23T13:38:02.185Z,5.53
2018-05-23T13:40:29.311Z,6.67
2018-05-23T13:42:55.722Z,6.57
2018-05-23T13:45:22.090Z,7.50
2018-05-23T13:47:48.500Z,6.77
2018-05-23T13:50:14.885Z,6.33
2018-05-23T13:52:42.024Z,7.53
2018-05-23T13:55:08.437Z,6.50
2018-05-23T13:57:34.829Z,6.57
2018-05-23T14:00:01.237Z,6.90
2018-05-23T14:02:28.344Z,6.80
2018-05-23T14:04:54.741Z,7.93
2018-05-23T14:07:21.106Z,9.23
2018-05-23T14:09:47.504Z,7.10
2018-05-23T14:12:13.891Z,6.60
2018-05-23T14:14:40.345Z,6.63
2018-05-23T14:17:07.533Z,8.13
2018-05-23T14:19:33.990Z,8.60
2018-05-23T14:22:00.366Z,7.97
2018-05-23T14:24:27.493Z,7.20
2018-05-23T14:26:53.901Z,8.60
2018-05-23T14:29:20.321Z,7.50
2018-05-23T14:31:46.770Z,6.23
2018-05-23T14:34:13.140Z,5.97
2018-05-23T14:36:39.557Z,6.80
2018-05-23T14:39:05.935Z,6.33
2018-05-23T14:41:33.178Z,6.50
2018-05-23T14:43:59.571Z,6.20
2018-05-23T14:46:26.101Z,7.10
2018-05-23T14:48:52.547Z,6.50
2018-05-23T14:51:19.019Z,7.27
2018-05-23T14:53:46.260Z,8.03
2018-05-23T14:56:13.429Z,6.97
2018-05-23T14:58:39.885Z,7.10
2018-05-23T15:01:06.394Z,6.90
2018-05-23T15:03:33.295Z,6.60
2018-05-23T15:05:59.697Z,6.83
2018-05-23T15:08:26.919Z,8.17
2018-05-23T15:10:53.272Z,7.60
2018-05-23T15:13:22.725Z,8.80
2018-05-23T15:15:49.261Z,8.10
2018-05-23T15:18:15.704Z,7.87
2018-05-23T15:20:42.071Z,7.27
2018-05-23T15:23:08.625Z,8.57
2018-05-23T15:25:35.743Z,7.20
2018-05-23T15:28:02.204Z,6.07
2018-05-23T15:30:29.384Z,6.87
2018-05-23T15:32:55.757Z,6.93
2018-05-23T15:35:22.173Z,6.67
2018-05-23T15:37:48.572Z,5.90
2018-05-23T15:40:14.991Z,6.70
2018-05-23T15:42:42.103Z,6.30
2018-05-23T15:45:08.538Z,5.83
2018-05-23T15:47:34.928Z,6.60
2018-05-23T15:50:01.304Z,6.90
2018-05-23T15:52:27.733Z,6.30
2018-05-23T15:54:54.104Z,6.83
2018-05-23T15:59:47.558Z,7.12
2018-05-23T16:02:13.951Z,7.27
2018-05-23T16:04:40.324Z,7.43
2018-05-23T16:07:06.716Z,6.97
2018-05-23T16:09:33.103Z,7.10
2018-05-23T16:11:59.509Z,7.40
2018-05-23T16:14:25.904Z,7.00
2018-05-23T16:16:53.046Z,7.80
2018-05-23T16:19:20.195Z,7.90
2018-05-23T16:21:47.331Z,7.30
2018-05-23T16:24:13.722Z,6.90
2018-05-23T16:26:40.100Z,7.50
2018-05-23T16:29:06.527Z,7.50
2018-05-23T16:31:32.918Z,6.90
2018-05-23T16:33:59.316Z,7.47
2018-05-23T16:36:26.437Z,7.77
2018-05-23T16:38:52.824Z,7.27
2018-05-23T16:41:19.212Z,6.37
2018-05-23T16:43:46.343Z,7.40
2018-05-23T16:46:12.736Z,7.70
2018-05-23T16:48:39.868Z,6.50
2018-05-23T16:51:06.269Z,6.87
2018-05-23T16:53:32.675Z,8.33
2018-05-23T16:55:59.088Z,9.17
2018-05-23T16:58:26.232Z,9.53
2018-05-23T17:00:53.405Z,8.60
2018-05-23T17:03:19.804Z,8.30
2018-05-23T17:05:46.920Z,8.37
2018-05-23T17:08:13.395Z,9.30
2018-05-23T17:10:40.511Z,11.20
2018-05-23T17:13:06.940Z,10.25
2018-05-23T17:15:33.374Z,10.43
2018-05-23T17:17:59.764Z,10.40
2018-05-23T17:20:26.921Z,10.87
2018-05-23T17:22:54.057Z,10.00
2018-05-23T20:37:36.908Z,15.40
2018-05-23T20:40:03.335Z,15.43
2018-05-23T20:42:30.497Z,14.82
2018-05-23T20:44:56.878Z,14.90
2018-05-23T20:47:23.283Z,13.60
2018-05-23T20:49:49.663Z,11.45
2018-05-23T20:52:16.065Z,13.07
2018-05-23T20:54:42.476Z,13.15
2018-05-23T20:57:08.880Z,11.73
2018-05-23T20:59:36.007Z,10.50
2018-05-23T21:02:02.417Z,10.90
2018-05-23T21:04:28.828Z,10.70
2018-05-23T21:06:55.240Z,12.02
2018-05-23T21:09:22.389Z,10.88
2018-05-23T21:11:49.541Z,9.82
2018-05-23T21:14:16.680Z,10.27
2018-05-23T21:16:43.116Z,8.77
2018-05-23T21:19:09.480Z,9.20
2018-05-23T21:21:35.885Z,9.57
2018-05-23T21:24:02.264Z,9.13
2018-05-23T21:26:28.684Z,9.10
2018-05-23T21:28:55.088Z,10.05
2018-05-23T21:31:22.228Z,9.75
2018-05-23T21:33:48.627Z,10.48
2018-05-23T21:36:15.013Z,11.30
2018-05-23T21:38:42.159Z,10.90
2018-05-23T21:41:09.273Z,10.95
2018-05-23T21:43:35.674Z,11.20
2018-05-23T21:46:02.052Z,11.90
2018-05-23T21:48:28.452Z,9.98
2018-05-23T21:50:54.845Z,10.25
2018-05-23T21:53:21.988Z,10.30
2018-05-23T21:55:48.355Z,9.77
2018-05-23T21:58:14.765Z,10.13
2018-05-23T22:00:41.883Z,10.13
2018-05-23T22:03:08.271Z,10.88
2018-05-23T22:05:34.647Z,11.07
2018-05-23T22:08:01.062Z,11.57
2018-05-23T22:10:27.463Z,12.10
2018-05-23T22:12:54.584Z,11.32
2018-05-23T22:15:20.980Z,12.32
2018-05-23T22:17:47.376Z,12.10
2018-05-23T22:20:14.524Z,12.85
2018-05-23T22:22:41.648Z,13.30
2018-05-23T22:25:08.048Z,13.85
2018-05-23T22:27:34.468Z,14.30
2018-05-23T22:30:00.902Z,14.40
2018-05-23T22:32:27.301Z,14.38
2018-05-23T22:34:53.693Z,14.05
2018-05-23T22:37:20.109Z,13.73
2018-05-23T22:39:46.484Z,13.10
2018-05-23T22:42:12.882Z,13.98
2018-05-23T22:44:39.252Z,13.25
2018-05-23T22:47:05.652Z,14.00
2018-05-23T22:49:32.029Z,13.05
2018-05-23T22:51:58.448Z,13.98
2018-05-23T22:54:24.828Z,15.40
2018-05-23T22:56:51.975Z,15.65
2018-05-23T22:59:19.093Z,16.27
2018-05-23T23:01:45.492Z,16.27
2018-05-23T23:04:11.892Z,14.70
2018-05-23T23:06:39.021Z,14.15
2018-05-23T23:09:05.417Z,15.07
2018-05-23T23:11:31.801Z,14.93
2018-05-23T23:13:58.936Z,14.40
2018-05-23T23:16:25.303Z,15.00
2018-05-23T23:18:52.465Z,16.30
2018-05-23T23:21:18.839Z,15.35
2018-05-23T23:23:45.231Z,15.13
2018-05-23T23:26:11.612Z,16.20
2018-05-23T23:28:38.035Z,16.20
2018-05-23T23:31:04.484Z,17.67
2018-05-23T23:33:30.866Z,17.80
2018-05-23T23:35:57.281Z,19.42
2018-05-23T23:38:24.427Z,18.20
2018-05-23T23:40:51.576Z,20.20
2018-05-23T23:43:18.708Z,21.10
2018-05-23T23:45:45.115Z,20.33
2018-05-23T23:48:11.495Z,22.53
2018-05-23T23:50:37.928Z,21.55
2018-05-23T23:53:04.313Z,21.70
2018-05-23T23:55:30.697Z,22.30
2018-05-23T23:57:57.084Z,22.87
